createdAt,value
2022-09-20T00:01:54.071Z,11.70
2022-09-20T00:05:09.105Z,11.62
2022-09-20T00:08:22.001Z,11.64
2022-09-20T00:11:40.045Z,11.59
2022-09-20T00:14:49.068Z,11.63
2022-09-20T00:17:58.091Z,11.63
2022-09-20T00:21:14.031Z,11.62
2022-09-20T00:24:35.991Z,11.57
2022-09-20T00:27:53.985Z,11.54
2022-09-20T00:31:03.083Z,11.55
2022-09-20T00:34:18.035Z,11.58
2022-09-20T00:37:19.891Z,11.51
2022-09-20T00:40:35.027Z,11.43
2022-09-20T00:43:52.036Z,11.44
2022-09-20T00:46:53.943Z,11.46
2022-09-20T00:50:24.100Z,11.43
2022-09-20T00:53:41.011Z,11.42
2022-09-20T00:56:49.894Z,11.41
2022-09-20T01:00:05.008Z,11.40
2022-09-20T01:03:11.241Z,11.37
2022-09-20T01:06:26.053Z,11.40
2022-09-20T01:09:34.658Z,11.33
2022-09-20T01:12:44.014Z,11.32
2022-09-20T01:16:00.018Z,11.36
2022-09-20T01:19:23.061Z,11.36
2022-09-20T01:22:54.054Z,11.35
2022-09-20T01:26:34.998Z,11.32
2022-09-20T01:30:10.047Z,11.29
2022-09-20T01:33:30.279Z,11.29
2022-09-20T01:36:55.067Z,11.25
2022-09-20T01:40:15.085Z,11.13
2022-09-20T01:43:35.700Z,11.08
2022-09-20T01:46:50.045Z,11.11
2022-09-20T01:50:07.395Z,11.13
2022-09-20T01:53:43.093Z,11.11
2022-09-20T01:57:27.319Z,11.04
2022-09-20T02:00:43.313Z,11.06
2022-09-20T02:04:18.103Z,11.06
2022-09-20T02:07:39.843Z,11.12
2022-09-20T02:11:24.015Z,11.07
2022-09-20T02:15:00.073Z,11.10
2022-09-20T02:18:28.295Z,11.07
2022-09-20T02:22:09.031Z,11.13
2022-09-20T02:25:24.418Z,11.02
2022-09-20T02:29:12.085Z,10.98
2022-09-20T02:32:39.090Z,10.93
2022-09-20T02:35:55.235Z,10.91
2022-09-20T02:39:27.095Z,10.94
2022-09-20T02:42:54.100Z,10.91
2022-09-20T02:46:23.121Z,10.92
2022-09-20T02:49:44.004Z,10.89
2022-09-20T02:53:10.107Z,10.88
2022-09-20T02:56:40.076Z,10.83
2022-09-20T02:59:56.920Z,10.84
2022-09-20T03:03:22.156Z,10.84
2022-09-20T03:06:55.143Z,10.85
2022-09-20T03:10:14.504Z,10.78
2022-09-20T03:13:52.091Z,10.85
2022-09-20T03:17:20.098Z,10.84
2022-09-20T03:20:41.895Z,10.83
2022-09-20T03:24:19.100Z,10.79
2022-09-20T03:28:01.083Z,10.80
2022-09-20T03:31:22.722Z,10.78
2022-09-20T03:34:54.138Z,10.73
2022-09-20T03:38:39.139Z,10.67
2022-09-20T03:41:59.425Z,10.60
2022-09-20T03:45:36.169Z,10.59
2022-09-20T03:49:11.099Z,10.55
2022-09-20T03:52:44.351Z,10.58
2022-09-20T03:56:19.123Z,10.56
2022-09-20T03:59:48.112Z,10.58
2022-09-20T04:03:11.748Z,10.54
2022-09-20T04:06:48.101Z,10.54
2022-09-20T04:10:23.131Z,10.54
2022-09-20T04:13:42.427Z,10.52
2022-09-20T04:17:00.216Z,10.49
2022-09-20T04:20:45.110Z,10.30
2022-09-20T04:24:18.102Z,10.47
2022-09-20T04:28:00.118Z,10.51
2022-09-20T04:31:37.146Z,10.42
2022-09-20T04:34:51.598Z,10.38
2022-09-20T04:38:01.153Z,10.46
2022-09-20T04:41:46.158Z,10.45
2022-09-20T04:45:14.407Z,10.47
2022-09-20T04:48:51.147Z,10.50
2022-09-20T04:52:38.184Z,10.49
2022-09-20T04:56:01.137Z,10.53
2022-09-20T04:59:08.372Z,10.55
2022-09-20T05:02:55.150Z,10.52
2022-09-20T05:06:33.140Z,10.49
2022-09-20T05:10:02.959Z,10.56
2022-09-20T05:13:38.578Z,10.59
2022-09-20T05:17:13.200Z,10.68
2022-09-20T05:20:41.686Z,10.71
2022-09-20T05:24:16.384Z,10.75
2022-09-20T05:27:46.136Z,10.81
2022-09-20T05:31:02.924Z,10.84
2022-09-20T05:34:29.191Z,10.91
2022-09-20T05:38:07.631Z,10.94
2022-09-20T05:41:40.235Z,11.05
2022-09-20T05:45:22.270Z,10.97
2022-09-20T05:48:53.672Z,11.02
2022-09-20T05:52:21.159Z,11.03
2022-09-20T05:55:53.158Z,11.21
2022-09-20T05:59:34.170Z,11.23
2022-09-20T06:02:56.302Z,11.27
2022-09-20T06:06:21.154Z,11.43
2022-09-20T06:10:05.188Z,11.44
2022-09-20T06:13:46.828Z,12.34
2022-09-20T06:17:27.704Z,12.68
2022-09-20T06:20:55.233Z,12.67
2022-09-20T06:24:00.212Z,12.74
2022-09-20T06:27:31.213Z,12.52
2022-09-20T06:30:53.470Z,12.82
2022-09-20T06:34:22.254Z,12.88
2022-09-20T06:37:55.269Z,13.66
2022-09-20T06:40:58.034Z,13.85
2022-09-20T06:44:13.198Z,14.41
2022-09-20T06:47:22.202Z,14.52
2022-09-20T06:50:30.216Z,15.02
2022-09-20T06:53:41.943Z,14.33
2022-09-20T06:56:52.195Z,15.16
2022-09-20T07:00:13.275Z,14.83
2022-09-20T07:03:28.213Z,15.47
2022-09-20T07:06:30.743Z,14.88
2022-09-20T07:09:48.373Z,15.40
2022-09-20T07:13:01.415Z,16.08
2022-09-20T07:16:12.328Z,15.97
2022-09-20T07:19:21.203Z,15.34
2022-09-20T07:22:30.323Z,16.05
2022-09-20T07:25:45.251Z,16.17
2022-09-20T07:29:08.340Z,14.76
2022-09-20T07:32:23.224Z,14.94
2022-09-20T07:35:25.342Z,15.38
2022-09-20T07:38:40.281Z,15.56
2022-09-20T07:41:49.198Z,15.74
2022-09-20T07:45:04.322Z,16.47
2022-09-20T07:48:19.242Z,15.86
2022-09-20T07:51:21.133Z,15.69
2022-09-20T07:54:36.246Z,15.77
2022-09-20T07:57:38.402Z,15.50
2022-09-20T08:01:02.262Z,15.12
2022-09-20T08:04:11.312Z,15.45
2022-09-20T08:07:20.347Z,16.58
2022-09-20T08:10:36.283Z,15.77
2022-09-20T08:14:09.752Z,15.60
2022-09-20T08:17:12.390Z,15.17
2022-09-20T08:20:27.242Z,15.93
2022-09-20T08:23:43.339Z,16.64
2022-09-20T08:26:58.298Z,16.18
2022-09-20T08:30:07.563Z,16.75
2022-09-20T08:33:16.279Z,16.95
2022-09-20T08:36:36.082Z,17.26
2022-09-20T08:40:00.631Z,16.85
2022-09-20T08:43:09.306Z,16.96
2022-09-20T08:46:29.308Z,17.19
2022-09-20T08:49:46.637Z,16.86
2022-09-20T08:52:53.814Z,17.02
2022-09-20T08:56:08.280Z,17.20
2022-09-20T08:59:16.708Z,18.04
2022-09-20T09:02:31.326Z,17.55
2022-09-20T09:05:50.495Z,17.53
2022-09-20T09:09:06.249Z,17.51
2022-09-20T09:12:17.741Z,17.92
2022-09-20T09:15:38.363Z,17.78
2022-09-20T09:18:48.329Z,17.44
2022-09-20T09:21:56.324Z,16.94
2022-09-20T09:25:39.337Z,18.20
2022-09-20T09:29:14.816Z,18.14
2022-09-20T09:32:33.283Z,18.22
2022-09-20T09:35:42.263Z,18.05
2022-09-20T09:38:53.354Z,17.86
2022-09-20T09:42:02.314Z,17.51
2022-09-20T09:45:13.330Z,17.77
2022-09-20T09:48:37.211Z,17.84
2022-09-20T09:51:47.285Z,17.36
2022-09-20T09:54:56.800Z,17.00
2022-09-20T09:58:22.419Z,17.15
2022-09-20T10:01:59.387Z,17.60
2022-09-20T10:05:21.321Z,17.93
2022-09-20T10:08:53.352Z,17.57
2022-09-20T10:12:28.337Z,17.77
2022-09-20T10:15:50.171Z,17.77
2022-09-20T10:19:22.605Z,17.60
2022-09-20T10:23:06.771Z,17.07
2022-09-20T10:26:29.393Z,17.34
2022-09-20T10:30:03.395Z,17.62
2022-09-20T10:33:30.564Z,17.71
2022-09-20T10:36:56.354Z,17.60
2022-09-20T10:40:35.505Z,17.86
2022-09-20T10:44:15.314Z,18.20
2022-09-20T10:47:26.401Z,19.12
2022-09-20T10:50:51.487Z,19.12
2022-09-20T10:54:36.403Z,19.66
2022-09-20T10:58:02.354Z,19.31
2022-09-20T11:01:28.033Z,19.01
2022-09-20T11:05:02.312Z,19.07
2022-09-20T11:08:21.444Z,18.62
2022-09-20T11:11:38.592Z,17.96
2022-09-20T11:15:08.412Z,18.75
2022-09-20T11:18:30.347Z,23.50
2022-09-20T11:21:44.631Z,21.46
2022-09-20T11:25:23.124Z,19.63
2022-09-20T11:28:45.983Z,19.52
2022-09-20T11:31:59.523Z,21.06
2022-09-20T11:35:34.379Z,20.64
2022-09-20T11:38:53.212Z,18.63
2022-09-20T11:42:11.391Z,18.49
2022-09-20T11:45:28.545Z,18.04
2022-09-20T11:48:38.983Z,18.02
2022-09-20T11:52:13.383Z,20.94
2022-09-20T11:55:44.858Z,25.77
2022-09-20T11:58:57.411Z,27.49
2022-09-20T12:02:35.582Z,27.18
2022-09-20T12:05:45.983Z,28.26
2022-09-20T12:08:57.475Z,23.76
2022-09-20T12:12:16.753Z,22.07
2022-09-20T12:15:32.391Z,23.78
2022-09-20T12:19:17.474Z,22.95
2022-09-20T12:22:28.068Z,23.02
2022-09-20T12:25:44.413Z,22.49
2022-09-20T12:29:09.806Z,20.99
2022-09-20T12:32:39.464Z,19.10
2022-09-20T12:35:52.711Z,19.31
2022-09-20T12:39:26.295Z,19.83
2022-09-20T12:42:43.596Z,19.55
2022-09-20T12:45:54.953Z,19.50
2022-09-20T12:49:27.493Z,18.69
2022-09-20T12:52:53.527Z,18.82
2022-09-20T12:56:07.919Z,18.87
2022-09-20T12:59:31.427Z,18.84
2022-09-20T13:02:59.110Z,18.98
2022-09-20T13:06:31.506Z,18.54
2022-09-20T13:09:41.462Z,19.32
2022-09-20T13:13:05.463Z,19.12
2022-09-20T13:16:33.445Z,19.18
2022-09-20T13:19:42.864Z,20.04
2022-09-20T13:23:00.474Z,19.83
2022-09-20T13:26:02.692Z,20.09
2022-09-20T13:29:38.487Z,19.51
2022-09-20T13:32:48.279Z,19.27
2022-09-20T13:36:06.282Z,20.11
2022-09-20T13:39:34.553Z,18.90
2022-09-20T13:42:43.967Z,19.05
2022-09-20T13:45:54.497Z,19.09
2022-09-20T13:49:23.475Z,19.13
2022-09-20T13:52:32.154Z,18.53
2022-09-20T13:55:43.438Z,19.37
2022-09-20T13:58:52.399Z,19.16
2022-09-20T14:02:02.570Z,19.75
2022-09-20T14:05:17.598Z,20.17
2022-09-20T14:08:45.459Z,19.43
2022-09-20T14:11:47.712Z,18.74
2022-09-20T14:15:03.470Z,18.34
2022-09-20T14:18:16.678Z,18.42
2022-09-20T14:21:30.466Z,18.49
2022-09-20T14:24:45.515Z,18.37
2022-09-20T14:28:12.459Z,18.06
2022-09-20T14:31:27.420Z,18.37
2022-09-20T14:34:45.512Z,17.43
2022-09-20T14:38:00.546Z,16.98
2022-09-20T14:41:09.168Z,17.03
2022-09-20T14:44:32.573Z,17.11
2022-09-20T14:47:53.574Z,17.12
2022-09-20T14:51:27.513Z,17.31
2022-09-20T14:54:37.811Z,17.65
2022-09-20T14:57:47.619Z,17.00
2022-09-20T15:01:06.515Z,16.40
2022-09-20T15:04:17.480Z,15.83
2022-09-20T15:07:32.645Z,15.85
2022-09-20T15:10:41.358Z,15.72
2022-09-20T15:13:50.528Z,15.84
2022-09-20T15:17:06.544Z,15.92
2022-09-20T15:20:24.870Z,15.88
2022-09-20T15:23:33.416Z,15.83
2022-09-20T15:26:55.664Z,15.82
2022-09-20T15:30:04.488Z,15.70
2022-09-20T15:33:20.507Z,15.37
2022-09-20T15:36:35.490Z,15.19
2022-09-20T15:39:37.347Z,15.18
2022-09-20T15:42:52.502Z,15.09
2022-09-20T15:46:17.772Z,15.06
2022-09-20T15:49:26.725Z,14.77
2022-09-20T15:52:36.847Z,14.85
2022-09-20T15:55:45.524Z,14.83
2022-09-20T15:58:56.819Z,14.67
2022-09-20T16:02:11.543Z,14.37
2022-09-20T16:05:13.359Z,14.25
2022-09-20T16:08:28.498Z,14.22
2022-09-20T16:11:44.567Z,14.00
2022-09-20T16:14:52.522Z,14.23
2022-09-20T16:18:07.548Z,13.96
2022-09-20T16:21:11.459Z,13.97
2022-09-20T16:24:30.507Z,13.91
2022-09-20T16:27:45.797Z,13.89
2022-09-20T16:31:02.555Z,13.89
2022-09-20T16:34:15.288Z,13.87
2022-09-20T16:37:29.536Z,13.89
2022-09-20T16:40:37.598Z,13.78
2022-09-20T16:43:52.555Z,13.65
2022-09-20T16:47:08.598Z,13.59
2022-09-20T16:50:10.397Z,13.57
2022-09-20T16:53:25.542Z,13.52
2022-09-20T16:56:35.527Z,13.37
2022-09-20T16:59:50.577Z,13.40
2022-09-20T17:03:05.580Z,13.44
2022-09-20T17:06:08.935Z,13.42
2022-09-20T17:09:24.576Z,13.36
2022-09-20T17:12:33.094Z,13.35
2022-09-20T17:15:41.570Z,13.31
2022-09-20T17:18:59.879Z,13.27
2022-09-20T17:22:08.599Z,13.17
2022-09-20T17:25:17.212Z,13.14
2022-09-20T17:28:31.575Z,13.14
2022-09-20T17:31:35.948Z,13.08
2022-09-20T17:34:50.564Z,13.00
2022-09-20T17:37:59.249Z,12.91
2022-09-20T17:41:13.564Z,12.84
2022-09-20T17:44:22.135Z,12.85
2022-09-20T17:47:30.617Z,12.82
2022-09-20T17:50:39.187Z,12.83
2022-09-20T17:53:53.590Z,12.78
2022-09-20T17:57:01.645Z,12.74
2022-09-20T18:00:17.614Z,12.79
2022-09-20T18:03:26.157Z,12.72
2022-09-20T18:06:37.582Z,12.62
2022-09-20T18:09:46.443Z,12.57
2022-09-20T18:12:55.720Z,12.52
2022-09-20T18:16:08.097Z,12.52
2022-09-20T18:19:22.722Z,12.37
2022-09-20T18:22:31.562Z,12.34
2022-09-20T18:25:42.433Z,12.24
2022-09-20T18:29:08.632Z,12.23
2022-09-20T18:32:18.612Z,12.19
2022-09-20T18:35:33.632Z,12.15
2022-09-20T18:38:51.597Z,12.14
2022-09-20T18:41:54.052Z,12.08
2022-09-20T18:45:08.611Z,12.11
2022-09-20T18:48:23.592Z,12.12
2022-09-20T18:51:39.046Z,12.14
2022-09-20T18:54:54.615Z,12.07
2022-09-20T18:58:01.206Z,11.98
2022-09-20T19:01:37.705Z,11.84
2022-09-20T19:05:11.629Z,11.85
2022-09-20T19:08:35.640Z,11.87
2022-09-20T19:11:50.804Z,11.83
2022-09-20T19:15:26.618Z,11.85
2022-09-20T19:18:53.759Z,11.75
2022-09-20T19:22:18.877Z,11.66
2022-09-20T19:25:46.590Z,11.66
2022-09-20T19:29:04.627Z,11.62
2022-09-20T19:32:16.686Z,11.67
2022-09-20T19:35:38.620Z,11.72
2022-09-20T19:39:00.604Z,11.60
2022-09-20T19:42:33.482Z,11.65
2022-09-20T19:45:53.623Z,11.63
2022-09-20T19:49:19.654Z,11.64
2022-09-20T19:52:28.547Z,11.48
2022-09-20T19:55:39.630Z,11.44
2022-09-20T19:58:48.525Z,11.44
2022-09-20T20:02:03.691Z,11.50
2022-09-20T20:05:06.058Z,11.54
2022-09-20T20:08:28.651Z,11.62
2022-09-20T20:11:49.092Z,11.61
2022-09-20T20:15:20.643Z,11.61
2022-09-20T20:18:52.042Z,11.47
2022-09-20T20:22:21.599Z,11.51
2022-09-20T20:26:01.664Z,11.40
2022-09-20T20:29:16.975Z,11.41
2022-09-20T20:32:25.659Z,11.37
2022-09-20T20:35:40.668Z,11.36
2022-09-20T20:38:48.642Z,11.39
2022-09-20T20:42:02.156Z,11.42
2022-09-20T20:45:18.622Z,11.43
2022-09-20T20:48:20.368Z,11.49
2022-09-20T20:51:34.661Z,11.49
2022-09-20T20:54:49.652Z,11.51
2022-09-20T20:58:00.641Z,11.53
2022-09-20T21:01:23.666Z,11.51
2022-09-20T21:04:25.587Z,11.47
2022-09-20T21:07:40.672Z,11.45
2022-09-20T21:10:49.283Z,11.38
2022-09-20T21:13:58.659Z,11.38
2022-09-20T21:17:13.915Z,11.38
2022-09-20T21:20:22.411Z,11.43
2022-09-20T21:23:30.688Z,11.42
2022-09-20T21:26:46.540Z,11.41
2022-09-20T21:29:54.654Z,11.36
2022-09-20T21:33:09.709Z,11.32
2022-09-20T21:39:36.706Z,11.35
2022-09-20T21:42:51.652Z,11.35
2022-09-20T21:46:00.578Z,11.23
2022-09-20T21:49:11.671Z,11.20
2022-09-20T21:52:26.678Z,11.14
2022-09-20T21:55:41.715Z,11.04
2022-09-20T21:58:44.584Z,10.93
2022-09-20T22:01:59.696Z,10.94
2022-09-20T22:05:01.670Z,10.88
2022-09-20T22:08:16.690Z,10.88
2022-09-20T22:11:27.109Z,10.87
2022-09-20T22:14:35.671Z,10.80
2022-09-20T22:17:44.255Z,10.82
2022-09-20T22:21:09.703Z,10.85
2022-09-20T22:24:12.921Z,10.86
2022-09-20T22:27:27.734Z,10.82
2022-09-20T22:30:43.014Z,10.80
2022-09-20T22:33:54.709Z,10.77
2022-09-20T22:37:03.319Z,10.81
2022-09-20T22:40:11.750Z,10.84
2022-09-20T22:43:26.715Z,10.77
2022-09-20T22:46:45.699Z,10.82
2022-09-20T22:49:53.707Z,10.81
2022-09-20T22:53:02.339Z,10.84
2022-09-20T22:56:27.720Z,10.83
2022-09-20T22:59:29.488Z,10.81
2022-09-20T23:02:43.727Z,10.82
2022-09-20T23:05:52.292Z,10.72
2022-09-20T23:09:03.739Z,10.71
2022-09-20T23:12:18.704Z,10.76
2022-09-20T23:15:26.700Z,10.73
2022-09-20T23:18:35.276Z,10.72
2022-09-20T23:21:50.686Z,10.74
2022-09-20T23:24:52.443Z,10.65
2022-09-20T23:28:13.732Z,10.61
2022-09-20T23:31:33.718Z,10.61
2022-09-20T23:34:35.515Z,10.63
2022-09-20T23:37:50.782Z,10.56
2022-09-20T23:40:59.719Z,10.54
2022-09-20T23:44:08.735Z,10.54
2022-09-20T23:47:23.894Z,10.54
2022-09-20T23:50:25.888Z,10.53
2022-09-20T23:53:41.731Z,10.52
2022-09-20T23:56:50.343Z,10.56
2022-09-20T23:59:58.728Z,10.67
